EDDB/SXF METAR and TAF weather

Enter ICAO airport designator
Station Type Date Time Source
EDDB METAR 2020/09/19 04:50 UTC NOAA

EDDB 190450Z 06004KT CAVOK 06/03 Q1025 NOSIG


Station Type Date Time Source
EDDB Decoded METAR 2020/09/19 04:50 UTC NOAA

Berlin-Schoenefeld, Germany (EDDB) 52-23N 013-31E 50M
Sep 19, 2020 - 12:50 AM EDT / 2020.09.19 0450 UTC
Wind: from the ENE (060 degrees) at 5 MPH (4 KT):0
Visibility: greater than 7 mile(s):0
Temperature: 42 F (6 C)
Dew Point: 37 F (3 C)
Relative Humidity: 81%
Pressure (altimeter): 30.27 in. Hg (1025 hPa)
ob: EDDB 190450Z 06004KT CAVOK 06/03 Q1025 NOSIG
cycle: 5

Station Type Date Time Source
EDDB TAF 2020/09/18 18:29 UTC NOAA

TAF EDDB 181700Z 1818/1918 08005KT CAVOK

Example: see airport list